Archival Weather

Chicago O'Hare International

Chicago, Illinois (KORD)

Report from: Thursday, November 24, 2022 1:51 AM CST
Current time: Sunday, December 4, 2022 6:35 AM CST

Current weather
Weather history
Weather forecast

Temperature5.6°C (42.1°F)
Wind chill4.6°C (40.2°F)
Dew point0.6°C (33.1°F)
Winds 3 kts (1.5 m/s, 3.5 mph) South-Southeast (160°)
Visibility10 mi. (16.1 km)
Clouds Scattered clouds 24,000 ft. (7,315 m)
Altimeter30.15 in.Hg (1021 mB)
Relative humidity70 %
Density altitude-1,301 ft. (-397 m)
Sea-level pressure102.1 kPa (1021 mB, 30.15 in.Hg)
Remarks System requires maintenance
Automated weather observing station with precipitation discriminator
Flight conditions Visual Meteorological Conditions
Raw dataKORD 240751Z 16003KT 10SM SCT240 06/01 A3015 RMK AO2 SLP210 T00560006 $
An error has occurred. This application may no longer respond until reloaded. Reload 🗙